Terminal Aerodrome Forecast
Issued by NWS

Home | Current Version | Previous Version | Text Only | Print | Product List | Glossary On
Versions: 1 2 3 4 5 6 7 8 9 10 11 12 13 14 15 16 17 18 19 20
191
FTUS43 KICT 221720
TAFRSL
TAF
KRSL 221720Z 2218/2318 15014G21KT P6SM VCSH SCT009 OVC015
     FM230100 14011KT 5SM -DZ BR OVC005
     FM231200 15015KT 5SM -SHRA VCTS SCT006 OVC010CB=

USA.gov is the U.S. government's official web portal to all federal, state and local government web resources and services.